createdAt,value
2017-06-02T00:00:35.862Z,62.70
2017-06-02T00:03:04.222Z,62.60
2017-06-02T00:05:32.595Z,62.60
2017-06-02T00:08:00.453Z,62.60
2017-06-02T00:10:28.771Z,62.70
2017-06-02T00:12:57.134Z,62.80
2017-06-02T00:15:25.837Z,62.90
2017-06-02T00:17:54.685Z,63.00
2017-06-02T00:20:23.001Z,63.00
2017-06-02T00:22:51.478Z,63.10
2017-06-02T00:25:20.537Z,63.30
2017-06-02T00:27:48.853Z,63.40
2017-06-02T00:30:18.609Z,63.40
2017-06-02T00:32:47.166Z,63.40
2017-06-02T00:35:15.525Z,63.40
2017-06-02T00:37:44.244Z,63.30
2017-06-02T00:40:12.605Z,63.40
2017-06-02T00:42:40.922Z,63.40
2017-06-02T00:45:09.337Z,63.40
2017-06-02T00:47:37.717Z,63.40
2017-06-02T00:50:06.902Z,63.50
2017-06-02T00:52:35.218Z,63.50
2017-06-02T00:55:03.531Z,63.60
2017-06-02T00:57:32.270Z,63.70
2017-06-02T01:00:00.639Z,63.70
2017-06-02T01:02:28.966Z,63.80
2017-06-02T01:04:57.686Z,63.80
2017-06-02T01:07:26.005Z,63.70
2017-06-02T01:09:54.365Z,63.70
2017-06-02T01:12:22.772Z,63.90
2017-06-02T01:14:51.178Z,63.80
2017-06-02T01:17:19.545Z,63.90
2017-06-02T01:19:48.075Z,64.10
2017-06-02T01:22:16.854Z,64.10
2017-06-02T01:24:45.217Z,64.20
2017-06-02T01:27:13.774Z,64.40
2017-06-02T01:29:42.185Z,64.50
2017-06-02T01:32:10.551Z,64.50
2017-06-02T01:34:42.069Z,64.50
2017-06-02T01:37:10.395Z,65.30
2017-06-02T01:39:38.714Z,64.70
2017-06-02T01:42:07.526Z,64.80
2017-06-02T01:44:35.896Z,65.00
2017-06-02T01:47:04.265Z,65.00
2017-06-02T01:49:32.986Z,65.00
2017-06-02T01:52:01.349Z,65.00
2017-06-02T01:54:29.677Z,65.10
2017-06-02T01:56:58.113Z,65.10
2017-06-02T01:59:26.426Z,65.30
2017-06-02T02:01:54.781Z,65.30
2017-06-02T02:04:23.101Z,65.40
2017-06-02T02:06:51.458Z,65.30
2017-06-02T02:09:19.824Z,65.40
2017-06-02T02:11:48.690Z,65.50
2017-06-02T02:14:17.056Z,65.60
2017-06-02T02:16:45.426Z,65.70
2017-06-02T02:19:13.866Z,65.70
2017-06-02T02:21:42.233Z,65.80
2017-06-02T02:24:10.605Z,66.00
2017-06-02T02:26:39.215Z,66.10
2017-06-02T02:29:07.586Z,66.20
2017-06-02T02:31:36.161Z,66.10
2017-06-02T02:34:04.533Z,66.10
2017-06-02T02:36:32.902Z,66.30
2017-06-02T02:39:01.301Z,66.30
2017-06-02T02:41:29.677Z,66.40
2017-06-02T02:43:58.094Z,66.50
2017-06-02T02:46:26.465Z,66.50
2017-06-02T02:48:54.834Z,66.60
2017-06-02T02:51:23.301Z,66.60
2017-06-02T02:53:51.709Z,67.50
2017-06-02T02:56:20.077Z,66.80
2017-06-02T02:58:49.077Z,66.80
2017-06-02T03:01:17.450Z,66.70
2017-06-02T03:03:45.822Z,66.70
2017-06-02T03:06:14.315Z,66.70
2017-06-02T03:08:43.057Z,66.80
2017-06-02T03:11:11.424Z,66.80
2017-06-02T03:13:39.789Z,66.80
2017-06-02T03:16:08.200Z,66.60
2017-06-02T03:18:36.964Z,66.80
2017-06-02T03:21:05.329Z,66.80
2017-06-02T03:23:33.688Z,66.80
2017-06-02T03:26:02.221Z,66.90
2017-06-02T03:28:31.325Z,66.90
2017-06-02T03:30:59.689Z,66.90
2017-06-02T03:33:28.061Z,67.60
2017-06-02T03:35:56.469Z,66.90
2017-06-02T03:38:24.834Z,66.80
2017-06-02T03:40:53.238Z,66.90
2017-06-02T03:43:21.761Z,66.90
2017-06-02T03:45:50.169Z,67.00
2017-06-02T03:48:18.576Z,67.10
2017-06-02T03:50:46.952Z,67.20
2017-06-02T03:53:15.365Z,67.30
2017-06-02T03:55:43.738Z,67.30
2017-06-02T03:58:12.189Z,67.50
2017-06-02T04:00:40.556Z,67.60
2017-06-02T04:03:08.926Z,67.60
2017-06-02T04:05:37.530Z,67.60
2017-06-02T04:08:05.889Z,67.50
2017-06-02T04:10:34.338Z,67.50
2017-06-02T04:13:07.558Z,67.60
2017-06-02T04:15:35.921Z,67.50
2017-06-02T04:18:04.745Z,67.50
2017-06-02T04:20:33.111Z,67.40
2017-06-02T04:23:01.485Z,67.40
2017-06-02T04:25:35.010Z,67.30
2017-06-02T04:28:03.602Z,67.30
2017-06-02T04:30:32.021Z,67.30
2017-06-02T04:33:00.383Z,67.40
2017-06-02T04:35:28.754Z,67.40
2017-06-02T04:37:57.167Z,67.50
2017-06-02T04:40:25.525Z,67.70
2017-06-02T04:42:53.990Z,67.70
2017-06-02T04:45:22.353Z,67.70
2017-06-02T04:47:50.798Z,67.50
2017-06-02T04:50:19.170Z,67.50
2017-06-02T04:52:47.548Z,67.70
2017-06-02T04:55:15.954Z,67.50
2017-06-02T04:57:44.325Z,67.80
2017-06-02T05:00:12.929Z,68.80
2017-06-02T05:02:41.309Z,68.10
2017-06-02T05:05:10.097Z,68.20
2017-06-02T05:07:38.465Z,68.40
2017-06-02T05:10:06.837Z,68.50
2017-06-02T05:12:35.405Z,69.60
2017-06-02T05:15:03.770Z,69.00
2017-06-02T05:17:32.608Z,69.00
2017-06-02T05:20:00.982Z,69.00
2017-06-02T05:22:29.353Z,69.10
2017-06-02T05:24:57.818Z,68.90
2017-06-02T05:27:26.525Z,68.10
2017-06-02T05:29:54.933Z,67.60
2017-06-02T05:32:23.293Z,67.30
2017-06-02T05:34:51.799Z,66.70
2017-06-02T05:37:20.165Z,66.50
2017-06-02T05:39:48.570Z,66.30
2017-06-02T05:42:16.933Z,66.20
2017-06-02T05:44:45.709Z,66.20
2017-06-02T05:47:14.066Z,66.10
2017-06-02T05:49:42.437Z,66.10
2017-06-02T05:52:10.918Z,66.00
2017-06-02T05:54:39.330Z,65.90
2017-06-02T05:57:07.694Z,65.80
2017-06-02T05:59:36.104Z,65.60
2017-06-02T06:02:04.469Z,65.80
2017-06-02T06:04:32.833Z,66.00
2017-06-02T06:07:01.233Z,65.80
2017-06-02T06:09:30.015Z,65.60
2017-06-02T06:11:58.373Z,65.50
2017-06-02T06:14:26.788Z,65.70
2017-06-02T06:16:55.152Z,65.40
2017-06-02T06:19:23.562Z,65.30
2017-06-02T06:21:51.929Z,65.30
2017-06-02T06:24:20.339Z,65.10
2017-06-02T06:26:48.715Z,64.90
2017-06-02T06:29:16.590Z,65.20
2017-06-02T06:31:45.068Z,64.50
2017-06-02T06:34:13.429Z,64.20
2017-06-02T06:36:41.873Z,64.20
2017-06-02T06:39:10.236Z,64.00
2017-06-02T06:41:38.637Z,64.00
2017-06-02T06:44:07.032Z,63.70
2017-06-02T06:46:35.485Z,63.40
2017-06-02T06:49:03.853Z,62.70
2017-06-02T06:51:32.455Z,62.00
2017-06-02T06:54:00.871Z,61.80
2017-06-02T06:56:29.249Z,61.60
2017-06-02T06:58:57.677Z,61.00
2017-06-02T07:01:26.241Z,60.50
2017-06-02T07:03:54.613Z,60.00
2017-06-02T07:06:22.989Z,59.70
2017-06-02T07:08:51.507Z,59.50
2017-06-02T07:11:20.340Z,59.40
2017-06-02T07:13:48.749Z,59.30
2017-06-02T07:16:17.158Z,58.90
2017-06-02T07:18:45.574Z,58.70
2017-06-02T07:21:14.598Z,58.40
2017-06-02T07:23:42.973Z,58.40
2017-06-02T07:26:11.348Z,58.50
2017-06-02T07:28:40.202Z,58.40
2017-06-02T07:31:09.000Z,58.00
2017-06-02T07:33:37.411Z,57.80
2017-06-02T07:36:05.782Z,57.60
2017-06-02T07:38:34.305Z,57.50
2017-06-02T07:41:02.686Z,57.20
2017-06-02T07:43:31.512Z,57.10
2017-06-02T07:45:59.895Z,57.10
2017-06-02T07:48:28.642Z,56.90
2017-06-02T07:51:06.138Z,56.90
2017-06-02T07:53:39.161Z,57.00
2017-06-02T07:56:15.157Z,56.50
2017-06-02T07:58:48.630Z,56.10
2017-06-02T08:01:22.390Z,55.70
2017-06-02T08:04:00.005Z,56.30
2017-06-02T08:06:33.525Z,55.30
2017-06-02T08:09:09.749Z,55.00
2017-06-02T08:11:47.056Z,54.80
2017-06-02T08:14:22.365Z,54.60
2017-06-02T08:16:54.424Z,54.50
2017-06-02T08:19:29.465Z,54.60
2017-06-02T08:22:06.743Z,54.50
2017-06-02T08:24:40.197Z,54.50
2017-06-02T08:27:16.554Z,54.20
2017-06-02T08:29:50.533Z,54.30
2017-06-02T08:32:26.798Z,54.20
2017-06-02T08:35:02.509Z,53.80
2017-06-02T08:37:38.183Z,53.30
2017-06-02T08:40:11.750Z,53.20
2017-06-02T08:42:48.971Z,53.10
2017-06-02T08:45:23.479Z,53.00
2017-06-02T08:47:58.623Z,52.90
2017-06-02T08:50:43.171Z,52.40
2017-06-02T08:53:11.565Z,52.10
2017-06-02T08:55:41.765Z,51.60
2017-06-02T08:58:23.305Z,51.20
2017-06-02T09:00:53.994Z,51.20
2017-06-02T09:15:07.601Z,50.60
2017-06-02T09:17:36.619Z,50.40
2017-06-02T09:20:05.136Z,50.20
2017-06-02T09:22:35.162Z,50.00
2017-06-02T09:25:10.781Z,49.70
2017-06-02T09:27:46.548Z,49.70
2017-06-02T09:30:21.738Z,50.00
2017-06-02T09:32:58.170Z,49.90
2017-06-02T09:35:30.751Z,49.50
2017-06-02T09:38:04.802Z,49.50
2017-06-02T09:40:43.379Z,49.30
2017-06-02T09:43:14.570Z,48.80
2017-06-02T09:45:52.185Z,48.60
2017-06-02T09:51:04.418Z,48.50
2017-06-02T09:53:39.631Z,47.90
2017-06-02T09:56:10.646Z,47.80
2017-06-02T09:58:49.461Z,47.60
2017-06-02T10:01:21.293Z,47.50
2017-06-02T10:04:00.738Z,47.50
2017-06-02T10:06:32.929Z,47.50
2017-06-02T10:09:09.141Z,47.20
2017-06-02T10:11:45.461Z,46.90
2017-06-02T10:14:17.139Z,46.60
2017-06-02T10:16:53.422Z,46.20
2017-06-02T10:19:28.634Z,46.20
2017-06-02T10:22:03.794Z,46.20
2017-06-02T10:24:38.143Z,45.50
2017-06-02T10:27:14.265Z,45.20
2017-06-02T10:29:47.866Z,45.20
2017-06-02T10:32:23.297Z,45.10
2017-06-02T10:34:56.917Z,44.80
2017-06-02T10:37:33.057Z,44.50
2017-06-02T10:40:08.979Z,44.50
2017-06-02T10:42:44.422Z,44.30
2017-06-02T10:45:16.459Z,44.10
2017-06-02T10:47:52.967Z,44.20
2017-06-02T10:50:27.503Z,44.20
2017-06-02T10:53:04.518Z,43.60
2017-06-02T10:55:35.098Z,43.20
2017-06-02T10:58:14.622Z,43.40
2017-06-02T11:00:47.324Z,43.30
2017-06-02T11:03:26.666Z,43.30
2017-06-02T11:06:00.197Z,43.40
2017-06-02T11:08:33.102Z,43.20
2017-06-02T11:11:09.403Z,43.10
2017-06-02T11:13:46.557Z,42.90
2017-06-02T11:16:18.057Z,42.30
2017-06-02T11:18:56.202Z,41.70
2017-06-02T11:21:30.740Z,41.70
2017-06-02T11:24:04.129Z,41.60
2017-06-02T11:26:42.329Z,41.50
2017-06-02T11:29:15.270Z,40.80
2017-06-02T11:31:48.541Z,40.60
2017-06-02T11:34:22.683Z,40.90
2017-06-02T11:36:58.341Z,41.20
2017-06-02T11:39:34.137Z,41.90
2017-06-02T11:42:08.638Z,40.60
2017-06-02T11:44:43.929Z,40.50
2017-06-02T11:47:17.370Z,40.30
2017-06-02T11:49:52.686Z,40.00
2017-06-02T11:52:35.970Z,39.00
2017-06-02T11:55:04.346Z,38.90
2017-06-02T11:57:37.062Z,39.00
2017-06-02T12:00:20.735Z,39.00
2017-06-02T12:02:49.111Z,39.10
2017-06-02T12:05:24.684Z,39.00
2017-06-02T12:08:00.618Z,38.50
2017-06-02T12:10:35.305Z,38.10
2017-06-02T12:13:07.442Z,38.00
2017-06-02T12:15:46.290Z,37.70
2017-06-02T12:18:19.311Z,37.40
2017-06-02T12:20:52.985Z,37.20
2017-06-02T12:26:02.262Z,36.60
2017-06-02T12:28:40.717Z,36.50
2017-06-02T12:33:56.937Z,36.40
2017-06-02T12:36:25.305Z,35.80
2017-06-02T12:39:00.941Z,35.60
2017-06-02T12:41:36.219Z,35.50
2017-06-02T12:44:07.865Z,35.50
2017-06-02T12:49:21.417Z,35.60
2017-06-02T12:51:56.558Z,35.50
2017-06-02T12:54:32.213Z,35.60
2017-06-02T12:57:03.151Z,36.00
2017-06-02T12:59:38.180Z,35.90
2017-06-02T13:02:09.936Z,35.90
2017-06-02T13:04:48.417Z,36.00
2017-06-02T13:07:22.498Z,36.30
2017-06-02T13:10:00.828Z,36.90
2017-06-02T13:12:35.200Z,37.00
2017-06-02T13:15:09.289Z,36.70
2017-06-02T13:17:46.481Z,36.50
2017-06-02T13:20:18.986Z,36.40
2017-06-02T13:22:53.173Z,36.10
2017-06-02T13:28:02.969Z,36.40
2017-06-02T13:30:46.541Z,35.80
2017-06-02T13:33:14.916Z,35.60
2017-06-02T13:35:49.593Z,35.50
2017-06-02T13:38:25.281Z,35.00
2017-06-02T13:41:01.553Z,35.10
2017-06-02T13:43:37.581Z,35.70
2017-06-02T13:46:11.285Z,35.70
2017-06-02T13:51:20.799Z,35.60
2017-06-02T13:53:58.870Z,36.20
2017-06-02T13:56:31.578Z,36.70
2017-06-02T13:59:10.173Z,37.00
2017-06-02T14:01:41.693Z,37.10
2017-06-02T14:04:16.391Z,37.20
2017-06-02T14:06:51.639Z,37.20
2017-06-02T14:09:26.958Z,37.10
2017-06-02T14:12:02.906Z,36.80
2017-06-02T14:14:37.441Z,36.80
2017-06-02T14:17:14.965Z,37.20
2017-06-02T14:19:47.176Z,37.50
2017-06-02T14:22:21.631Z,37.70
2017-06-02T14:25:00.337Z,38.00
2017-06-02T14:27:37.525Z,38.30
2017-06-02T14:30:08.989Z,38.60
2017-06-02T14:32:44.310Z,39.10
2017-06-02T14:35:22.365Z,39.20
2017-06-02T14:37:53.930Z,39.40
2017-06-02T14:40:29.393Z,39.60
2017-06-02T14:43:00.786Z,39.90
2017-06-02T14:45:44.037Z,39.60
2017-06-02T14:48:15.277Z,39.60
2017-06-02T14:50:47.665Z,39.70
2017-06-02T14:53:26.043Z,39.90
2017-06-02T14:55:59.869Z,39.80
2017-06-02T14:58:32.941Z,39.90
2017-06-02T15:01:11.237Z,40.30
2017-06-02T15:03:44.881Z,40.10
2017-06-02T15:06:22.714Z,40.20
2017-06-02T15:08:58.082Z,40.60
2017-06-02T15:11:30.142Z,40.80
2017-06-02T15:14:04.570Z,40.90
2017-06-02T15:16:40.990Z,40.90
2017-06-02T15:19:15.146Z,40.90
2017-06-02T15:21:53.061Z,41.00
2017-06-02T15:24:28.332Z,41.10
2017-06-02T15:27:03.712Z,41.40
2017-06-02T15:29:37.359Z,41.50
2017-06-02T15:32:10.896Z,41.70
2017-06-02T15:34:47.160Z,41.80
2017-06-02T15:37:22.565Z,41.80
2017-06-02T15:39:58.473Z,41.70
2017-06-02T15:42:33.896Z,41.40
2017-06-02T15:45:06.158Z,41.20
2017-06-02T15:47:43.685Z,41.30
2017-06-02T15:50:19.107Z,41.60
2017-06-02T15:52:51.586Z,42.00
2017-06-02T15:55:30.545Z,42.30
2017-06-02T15:58:07.105Z,42.60
2017-06-02T16:00:37.879Z,42.90
2017-06-02T16:03:12.191Z,42.80
2017-06-02T16:05:55.343Z,43.40
2017-06-02T16:08:23.818Z,43.80
2017-06-02T16:10:58.973Z,44.10
2017-06-02T16:13:33.455Z,45.10
2017-06-02T16:16:09.553Z,44.60
2017-06-02T16:18:45.957Z,44.90
2017-06-02T16:21:18.645Z,45.20
2017-06-02T16:23:55.732Z,45.50
2017-06-02T16:26:30.461Z,45.50
2017-06-02T16:29:05.566Z,46.20
2017-06-02T16:31:42.361Z,45.60
2017-06-02T16:34:14.173Z,45.90
2017-06-02T16:36:49.523Z,46.80
2017-06-02T16:39:26.438Z,48.90
2017-06-02T16:42:02.821Z,50.60
2017-06-02T16:44:35.153Z,51.80
2017-06-02T16:47:09.877Z,51.80
2017-06-02T16:49:53.181Z,55.40
2017-06-02T16:52:21.561Z,56.50
2017-06-02T16:54:58.898Z,57.50
2017-06-02T16:57:34.134Z,57.90
2017-06-02T17:00:05.313Z,58.70
2017-06-02T17:02:51.582Z,59.40
2017-06-02T17:05:20.311Z,60.40
2017-06-02T17:07:51.573Z,61.60
2017-06-02T17:10:26.325Z,61.90
2017-06-02T17:13:14.429Z,62.10
2017-06-02T17:15:43.021Z,62.20
2017-06-02T17:18:11.667Z,61.90
2017-06-02T17:23:21.649Z,62.10
2017-06-02T17:25:57.034Z,62.50
2017-06-02T17:28:32.261Z,63.40
2017-06-02T17:31:07.159Z,64.10
2017-06-02T17:33:42.233Z,63.90
2017-06-02T17:36:18.446Z,63.80
2017-06-02T17:38:53.872Z,63.80
2017-06-02T17:41:29.675Z,64.30
2017-06-02T17:44:05.081Z,64.90
2017-06-02T17:46:39.129Z,65.30
2017-06-02T17:49:08.142Z,65.40
2017-06-02T17:51:46.706Z,65.40
2017-06-02T17:54:25.508Z,65.30
2017-06-02T17:56:59.062Z,65.40
2017-06-02T17:59:31.975Z,66.20
2017-06-02T18:02:15.462Z,66.50
2017-06-02T18:04:43.886Z,66.60
2017-06-02T18:07:13.754Z,67.40
2017-06-02T18:09:53.801Z,68.20
2017-06-02T18:12:29.070Z,68.70
2017-06-02T18:15:38.199Z,68.70
2017-06-02T18:18:12.768Z,70.40
2017-06-02T18:20:48.421Z,70.50
2017-06-02T18:23:16.845Z,70.00
2017-06-02T18:28:30.194Z,70.50
2017-06-02T18:31:04.538Z,70.70
2017-06-02T18:33:38.866Z,70.80
2017-06-02T18:39:05.151Z,70.70
2017-06-02T18:41:33.801Z,71.20
2017-06-02T18:44:03.117Z,71.00
2017-06-02T18:46:33.903Z,71.30
2017-06-02T18:49:16.398Z,71.70
2017-06-02T18:51:45.748Z,72.20
2017-06-02T18:54:22.049Z,72.40
2017-06-02T18:56:56.032Z,73.20
2017-06-02T18:59:34.347Z,73.20
2017-06-02T19:02:08.833Z,73.30
2017-06-02T19:04:44.478Z,73.30
2017-06-02T19:07:16.345Z,73.70
2017-06-02T19:09:50.596Z,73.90
2017-06-02T19:12:33.130Z,74.00
2017-06-02T19:15:01.689Z,74.30
2017-06-02T19:17:36.158Z,74.30
2017-06-02T19:20:12.549Z,74.90
2017-06-02T19:22:46.720Z,74.80
2017-06-02T19:25:24.294Z,74.70
2017-06-02T19:27:58.981Z,74.80
2017-06-02T19:30:32.002Z,74.80
2017-06-02T19:33:09.057Z,74.80
2017-06-02T19:35:42.245Z,74.90
2017-06-02T19:38:25.629Z,75.40
2017-06-02T19:40:53.245Z,75.70
2017-06-02T19:43:29.347Z,75.90
2017-06-02T19:46:03.510Z,76.10
2017-06-02T19:48:38.442Z,75.90
2017-06-02T19:54:04.513Z,76.20
2017-06-02T19:56:32.129Z,76.50
2017-06-02T19:58:59.778Z,76.50
2017-06-02T20:01:39.733Z,77.60
2017-06-02T20:04:10.797Z,76.90
2017-06-02T20:06:47.797Z,77.00
2017-06-02T20:09:15.404Z,77.20
2017-06-02T20:11:43.002Z,77.30
2017-06-02T20:14:11.081Z,77.30
2017-06-02T20:16:38.682Z,77.40
2017-06-02T20:19:06.281Z,77.40
2017-06-02T20:21:36.217Z,77.80
2017-06-02T20:24:03.818Z,77.70
2017-06-02T20:26:31.421Z,77.80
2017-06-02T20:28:59.067Z,77.80
2017-06-02T20:31:26.721Z,77.90
2017-06-02T20:33:54.326Z,77.80
2017-06-02T20:36:22.297Z,77.60
2017-06-02T20:38:49.899Z,77.50
2017-06-02T20:41:17.488Z,77.40
2017-06-02T20:43:45.162Z,77.40
2017-06-02T20:46:13.528Z,77.30
2017-06-02T20:48:41.128Z,77.30
2017-06-02T20:51:08.949Z,77.20
2017-06-02T20:53:36.570Z,77.30
2017-06-02T20:56:04.173Z,77.30
2017-06-02T20:58:32.003Z,77.40
2017-06-02T21:00:59.605Z,77.50
2017-06-02T21:03:27.246Z,77.70
2017-06-02T21:05:54.842Z,77.90
2017-06-02T21:08:23.260Z,78.10
2017-06-02T21:10:50.865Z,78.10
2017-06-02T21:13:20.006Z,78.30
2017-06-02T21:15:47.605Z,78.30
2017-06-02T21:18:15.937Z,78.50
2017-06-02T21:20:43.541Z,78.60
2017-06-02T21:23:11.142Z,78.80
2017-06-02T21:25:39.669Z,78.80
2017-06-02T21:28:07.273Z,78.60
2017-06-02T21:30:35.214Z,78.60
2017-06-02T21:33:02.813Z,78.70
2017-06-02T21:35:31.181Z,78.80
2017-06-02T21:37:58.886Z,78.70
2017-06-02T21:40:26.529Z,78.60
2017-06-02T21:42:54.899Z,78.50
2017-06-02T21:45:22.890Z,78.50
2017-06-02T21:47:50.549Z,78.50
2017-06-02T21:50:18.146Z,78.50
2017-06-02T21:52:45.745Z,78.80
2017-06-02T21:55:14.672Z,78.80
2017-06-02T21:57:42.274Z,78.90
2017-06-02T22:00:09.870Z,78.90
2017-06-02T22:02:37.604Z,78.90
2017-06-02T22:05:05.242Z,78.80
2017-06-02T22:07:32.840Z,78.90
2017-06-02T22:10:01.065Z,79.10
2017-06-02T22:12:28.661Z,79.20
2017-06-02T22:14:56.252Z,79.30
2017-06-02T22:17:23.884Z,79.30
2017-06-02T22:19:51.564Z,79.40
2017-06-02T22:22:19.263Z,79.40
2017-06-02T22:24:46.865Z,79.40
2017-06-02T22:27:18.402Z,79.50
2017-06-02T22:29:46.002Z,79.50
2017-06-02T22:32:15.482Z,79.50
2017-06-02T22:34:43.079Z,79.70
2017-06-02T22:37:10.716Z,79.60
2017-06-02T22:39:38.509Z,79.70
2017-06-02T22:42:06.104Z,79.70
2017-06-02T22:44:34.064Z,79.70
2017-06-02T22:47:01.658Z,79.60
2017-06-02T22:49:29.261Z,79.70
2017-06-02T22:51:57.358Z,79.80
2017-06-02T22:54:24.948Z,80.00
2017-06-02T22:56:52.541Z,80.10
2017-06-02T22:59:20.225Z,80.00
2017-06-02T23:01:47.869Z,80.00
2017-06-02T23:04:15.465Z,79.90
2017-06-02T23:06:43.101Z,79.90
2017-06-02T23:09:10.886Z,80.80
2017-06-02T23:11:39.246Z,80.30
2017-06-02T23:14:06.904Z,80.20
2017-06-02T23:16:34.509Z,80.30
2017-06-02T23:19:02.102Z,80.40
2017-06-02T23:21:30.045Z,80.50
2017-06-02T23:23:57.645Z,80.50
2017-06-02T23:26:25.241Z,80.70
2017-06-02T23:28:57.006Z,80.60
2017-06-02T23:31:24.608Z,80.60
2017-06-02T23:33:54.241Z,80.60
2017-06-02T23:36:22.157Z,80.50
2017-06-02T23:38:49.754Z,80.50
2017-06-02T23:41:17.351Z,80.30
2017-06-02T23:43:46.137Z,81.10
2017-06-02T23:46:14.505Z,80.40
2017-06-02T23:48:42.141Z,80.30
2017-06-02T23:51:10.065Z,80.30
2017-06-02T23:53:38.565Z,80.30
2017-06-02T23:56:06.161Z,80.30
2017-06-02T23:58:34.077Z,80.30
